createdAt,value
2022-11-26T00:00:56.139Z,68.94
2022-11-26T00:03:24.587Z,69.07
2022-11-26T00:05:57.781Z,69.16
2022-11-26T00:08:34.569Z,69.33
2022-11-26T00:11:03.758Z,69.38
2022-11-26T00:13:32.479Z,69.55
2022-11-26T00:16:00.595Z,69.97
2022-11-26T00:18:28.659Z,69.92
2022-11-26T00:21:00.935Z,69.00
2022-11-26T00:23:30.889Z,69.77
2022-11-26T00:26:01.573Z,70.00
2022-11-26T00:28:32.794Z,69.81
2022-11-26T00:31:03.954Z,69.63
2022-11-26T00:33:33.128Z,69.45
2022-11-26T00:36:07.721Z,69.54
2022-11-26T00:38:37.171Z,69.05
2022-11-26T00:41:05.494Z,69.21
2022-11-26T00:43:33.596Z,69.45
2022-11-26T00:46:02.529Z,69.73
2022-11-26T00:48:31.894Z,69.36
2022-11-26T00:51:00.193Z,69.43
2022-11-26T00:53:29.361Z,69.74
2022-11-26T00:55:59.132Z,69.36
2022-11-26T00:58:30.554Z,69.83
2022-11-26T01:01:00.684Z,69.57
2022-11-26T01:03:30.338Z,69.47
2022-11-26T01:06:02.267Z,69.61
2022-11-26T01:08:34.009Z,69.46
2022-11-26T01:11:06.027Z,69.45
2022-11-26T01:13:34.752Z,69.88
2022-11-26T01:16:14.410Z,69.71
2022-11-26T01:18:42.624Z,69.56
2022-11-26T01:21:11.256Z,69.95
2022-11-26T01:23:39.565Z,69.88
2022-11-26T01:26:16.902Z,70.39
2022-11-26T01:28:45.636Z,69.65
2022-11-26T01:31:17.489Z,70.25
2022-11-26T01:33:46.291Z,70.26
2022-11-26T01:36:24.496Z,69.60
2022-11-26T01:38:53.106Z,69.92
2022-11-26T01:41:42.148Z,70.00
2022-11-26T01:44:19.849Z,70.08
2022-11-26T01:46:49.509Z,69.99
2022-11-26T01:49:22.152Z,69.98
2022-11-26T01:51:57.079Z,69.84
2022-11-26T01:54:25.729Z,69.74
2022-11-26T01:56:57.951Z,69.52
2022-11-26T01:59:31.298Z,69.65
2022-11-26T02:02:01.484Z,70.47
2022-11-26T02:04:34.163Z,70.67
2022-11-26T02:07:02.464Z,70.27
2022-11-26T02:09:31.952Z,70.19
2022-11-26T02:12:01.635Z,70.47
2022-11-26T02:14:33.468Z,69.72
2022-11-26T02:17:21.193Z,70.37
2022-11-26T02:20:30.119Z,70.41
2022-11-26T02:23:43.965Z,70.66
2022-11-26T02:27:03.681Z,70.65
2022-11-26T02:30:06.823Z,70.69
2022-11-26T02:32:54.364Z,70.31
2022-11-26T02:35:31.661Z,70.19
2022-11-26T02:38:04.186Z,69.80
2022-11-26T02:40:32.789Z,69.86
2022-11-26T02:43:01.130Z,69.77
2022-11-26T02:45:34.957Z,69.81
2022-11-26T02:48:07.982Z,69.86
2022-11-26T02:50:40.430Z,69.79
2022-11-26T02:53:10.499Z,70.22
2022-11-26T02:55:44.202Z,70.24
2022-11-26T02:58:12.433Z,70.70
2022-11-26T03:00:43.882Z,70.88
2022-11-26T03:03:23.733Z,70.64
2022-11-26T03:05:55.574Z,70.54
2022-11-26T03:08:25.594Z,70.64
2022-11-26T03:10:53.887Z,70.57
2022-11-26T03:13:22.203Z,70.38
2022-11-26T03:15:51.752Z,69.90
2022-11-26T03:18:20.045Z,70.11
2022-11-26T03:20:52.131Z,69.85
2022-11-26T03:23:20.597Z,70.12
2022-11-26T03:25:48.823Z,70.39
2022-11-26T03:28:16.979Z,70.32
2022-11-26T03:30:45.117Z,69.99
2022-11-26T03:33:14.579Z,69.57
2022-11-26T03:35:42.859Z,69.50
2022-11-26T03:38:10.992Z,70.43
2022-11-26T03:40:39.148Z,70.58
2022-11-26T03:43:07.314Z,70.60
2022-11-26T03:45:35.495Z,70.54
2022-11-26T03:48:03.637Z,70.07
2022-11-26T03:50:33.116Z,69.95
2022-11-26T03:53:01.256Z,69.96
2022-11-26T03:55:29.386Z,70.03
2022-11-26T03:57:57.513Z,69.80
2022-11-26T04:00:25.755Z,70.05
2022-11-26T04:02:53.941Z,70.07
2022-11-26T04:05:22.135Z,70.07
2022-11-26T04:07:51.684Z,70.18
2022-11-26T04:10:20.064Z,70.21
2022-11-26T04:12:48.159Z,70.04
2022-11-26T04:15:16.450Z,70.01
2022-11-26T04:17:44.601Z,70.30
2022-11-26T04:20:13.641Z,70.75
2022-11-26T04:22:41.790Z,70.46
2022-11-26T04:25:11.866Z,70.28
2022-11-26T04:27:40.219Z,70.65
2022-11-26T04:30:10.280Z,70.70
2022-11-26T04:32:39.869Z,70.37
2022-11-26T04:35:09.467Z,69.92
2022-11-26T04:37:37.819Z,69.89
2022-11-26T04:40:08.256Z,69.74
2022-11-26T04:42:37.800Z,69.87
2022-11-26T04:45:06.945Z,69.08
2022-11-26T04:47:37.815Z,69.53
2022-11-26T04:50:10.953Z,69.52
2022-11-26T04:52:40.361Z,69.28
2022-11-26T04:55:11.726Z,69.10
2022-11-26T04:57:41.298Z,69.04
2022-11-26T05:00:11.996Z,68.82
2022-11-26T05:02:40.315Z,69.04
2022-11-26T05:05:09.374Z,69.55
2022-11-26T05:07:37.567Z,68.84
2022-11-26T05:10:08.573Z,68.20
2022-11-26T05:12:36.903Z,68.06
2022-11-26T05:15:07.983Z,68.22
2022-11-26T05:17:36.137Z,68.95
2022-11-26T05:20:05.084Z,68.58
2022-11-26T05:22:33.306Z,68.17
2022-11-26T05:25:01.474Z,68.61
2022-11-26T05:27:29.611Z,69.30
2022-11-26T05:29:57.737Z,69.08
2022-11-26T05:32:27.685Z,68.08
2022-11-26T05:35:00.032Z,68.06
2022-11-26T05:37:28.617Z,67.83
2022-11-26T05:39:56.734Z,67.79
2022-11-26T05:42:24.858Z,67.54
2022-11-26T05:44:53.122Z,67.10
2022-11-26T05:47:21.258Z,67.36
2022-11-26T05:49:50.713Z,67.16
2022-11-26T05:52:19.026Z,67.43
2022-11-26T05:54:47.229Z,66.92
2022-11-26T05:57:15.631Z,66.59
2022-11-26T05:59:43.918Z,66.86
2022-11-26T06:02:12.144Z,67.19
2022-11-26T06:04:40.684Z,67.35
2022-11-26T06:07:10.856Z,67.13
2022-11-26T06:09:39.178Z,67.55
2022-11-26T06:12:07.803Z,67.81
2022-11-26T06:14:40.306Z,67.34
2022-11-26T06:17:09.772Z,67.82
2022-11-26T06:19:37.970Z,67.94
2022-11-26T06:22:06.139Z,67.78
2022-11-26T06:24:36.586Z,67.81
2022-11-26T06:27:05.290Z,67.82
2022-11-26T06:29:33.733Z,68.76
2022-11-26T06:32:01.866Z,68.22
2022-11-26T06:34:36.373Z,68.40
2022-11-26T06:37:05.039Z,68.93
2022-11-26T06:39:59.424Z,68.63
2022-11-26T06:42:33.141Z,68.97
2022-11-26T06:45:01.275Z,69.14
2022-11-26T06:47:29.477Z,69.12
2022-11-26T06:49:57.586Z,68.87
2022-11-26T06:52:25.766Z,69.50
2022-11-26T06:54:53.911Z,69.18
2022-11-26T06:57:23.335Z,69.00
2022-11-26T06:59:53.097Z,69.55
2022-11-26T07:02:21.408Z,69.83
2022-11-26T07:04:49.518Z,70.00
2022-11-26T07:07:17.708Z,69.46
2022-11-26T07:09:45.918Z,69.36
2022-11-26T07:12:14.190Z,69.37
2022-11-26T07:14:44.433Z,69.60
2022-11-26T07:17:12.607Z,69.21
2022-11-26T07:19:40.786Z,68.76
2022-11-26T07:22:08.963Z,68.39
2022-11-26T07:24:37.407Z,68.78
2022-11-26T07:27:05.788Z,68.52
2022-11-26T07:29:34.119Z,68.32
2022-11-26T07:32:03.740Z,68.63
2022-11-26T07:34:32.128Z,68.55
2022-11-26T07:37:00.324Z,68.45
2022-11-26T07:39:28.490Z,68.02
2022-11-26T07:41:56.607Z,68.04
2022-11-26T07:44:24.760Z,68.09
2022-11-26T07:46:52.897Z,68.19
2022-11-26T07:49:22.370Z,68.35
2022-11-26T07:51:50.494Z,67.75
2022-11-26T07:54:18.657Z,68.00
2022-11-26T07:56:52.685Z,68.14
2022-11-26T07:59:24.106Z,67.79
2022-11-26T08:01:53.016Z,68.01
2022-11-26T08:04:24.174Z,67.84
2022-11-26T08:06:52.504Z,67.51
2022-11-26T08:09:27.535Z,67.87
2022-11-26T08:11:57.159Z,67.20
2022-11-26T08:14:25.541Z,67.44
2022-11-26T08:16:53.822Z,67.29
2022-11-26T08:19:23.622Z,67.26
2022-11-26T08:21:51.816Z,67.42
2022-11-26T08:24:22.049Z,67.42
2022-11-26T08:26:51.715Z,67.02
2022-11-26T08:29:19.941Z,66.95
2022-11-26T08:31:49.537Z,67.46
2022-11-26T08:34:18.203Z,67.05
2022-11-26T08:36:47.815Z,66.94
2022-11-26T08:39:17.683Z,67.22
2022-11-26T08:41:52.024Z,67.31
2022-11-26T08:44:21.553Z,67.77
2022-11-26T08:46:50.225Z,67.97
2022-11-26T08:49:18.682Z,67.61
2022-11-26T08:51:48.256Z,68.62
2022-11-26T08:54:16.500Z,68.16
2022-11-26T08:56:44.765Z,67.88
2022-11-26T08:59:12.871Z,68.04
2022-11-26T09:01:41.409Z,68.28
2022-11-26T09:04:09.531Z,67.55
2022-11-26T09:06:37.841Z,67.95
2022-11-26T09:09:17.599Z,68.39
2022-11-26T09:11:50.041Z,68.07
2022-11-26T09:14:21.254Z,67.74
2022-11-26T09:16:49.596Z,67.62
2022-11-26T09:19:19.031Z,67.21
2022-11-26T09:21:48.466Z,67.06
2022-11-26T09:24:19.787Z,67.13
2022-11-26T09:26:48.929Z,66.79
2022-11-26T09:29:20.154Z,66.67
2022-11-26T09:34:44.340Z,66.77
2022-11-26T09:37:12.597Z,66.53
2022-11-26T09:39:42.059Z,66.25
2022-11-26T09:42:27.463Z,66.43
2022-11-26T09:45:09.847Z,65.85
2022-11-26T09:47:42.691Z,64.96
2022-11-26T09:50:27.452Z,65.05
2022-11-26T09:53:01.461Z,65.58
2022-11-26T09:55:34.572Z,64.68
2022-11-26T09:58:12.266Z,65.24
2022-11-26T10:00:44.889Z,64.89
2022-11-26T10:03:17.236Z,65.21
2022-11-26T10:05:57.164Z,65.10
2022-11-26T10:12:26.079Z,65.20
2022-11-26T10:15:04.365Z,64.59
2022-11-26T10:17:44.556Z,64.72
2022-11-26T10:21:08.066Z,64.22
2022-11-26T10:23:45.540Z,64.79
2022-11-26T10:26:18.158Z,64.98
2022-11-26T10:28:50.328Z,65.13
2022-11-26T10:31:23.168Z,64.67
2022-11-26T10:33:56.875Z,64.21
2022-11-26T10:36:29.827Z,63.89
2022-11-26T10:38:58.017Z,64.36
2022-11-26T10:41:31.107Z,63.88
2022-11-26T10:44:30.423Z,64.43
2022-11-26T10:46:59.788Z,64.06
2022-11-26T10:49:31.185Z,63.63
2022-11-26T10:52:03.523Z,63.63
2022-11-26T10:54:36.046Z,63.68
2022-11-26T10:57:14.759Z,62.80
2022-11-26T10:59:53.019Z,62.28
2022-11-26T11:02:33.971Z,62.44
2022-11-26T11:05:06.819Z,62.51
2022-11-26T11:07:44.134Z,61.19
2022-11-26T11:10:18.572Z,61.90
2022-11-26T11:12:51.146Z,61.19
2022-11-26T11:15:25.274Z,61.45
2022-11-26T11:17:59.973Z,61.63
2022-11-26T11:20:36.130Z,61.35
2022-11-26T11:23:35.008Z,61.41
2022-11-26T11:26:41.536Z,61.13
2022-11-26T11:29:27.529Z,61.34
2022-11-26T11:31:58.766Z,60.86
2022-11-26T11:34:32.774Z,60.83
2022-11-26T11:37:03.606Z,60.98
2022-11-26T11:39:34.784Z,60.10
2022-11-26T11:42:07.555Z,61.20
2022-11-26T11:44:43.971Z,61.18
2022-11-26T11:47:35.240Z,60.95
2022-11-26T11:50:21.916Z,59.44
2022-11-26T11:53:08.661Z,60.24
2022-11-26T11:55:59.453Z,60.57
2022-11-26T11:58:54.997Z,60.22
2022-11-26T12:01:43.773Z,59.67
2022-11-26T12:04:44.166Z,60.08
2022-11-26T12:07:36.585Z,60.13
2022-11-26T12:10:15.009Z,59.47
2022-11-26T12:12:47.679Z,59.64
2022-11-26T12:15:27.309Z,60.01
2022-11-26T12:18:04.844Z,59.83
2022-11-26T12:20:41.178Z,59.80
2022-11-26T12:23:26.959Z,59.92
2022-11-26T12:26:01.550Z,59.59
2022-11-26T12:28:32.879Z,59.72
2022-11-26T12:31:06.643Z,59.88
2022-11-26T12:33:43.444Z,59.13
2022-11-26T12:36:23.452Z,59.64
2022-11-26T12:38:55.170Z,60.04
2022-11-26T12:41:28.464Z,61.12
2022-11-26T12:44:06.278Z,60.47
2022-11-26T12:46:44.688Z,60.85
2022-11-26T12:49:29.111Z,60.21
2022-11-26T12:52:17.166Z,61.00
2022-11-26T12:54:57.705Z,60.94
2022-11-26T12:57:33.684Z,61.11
2022-11-26T13:00:08.685Z,61.11
2022-11-26T13:02:41.254Z,60.54
2022-11-26T13:05:16.224Z,60.71
2022-11-26T13:08:07.237Z,60.87
2022-11-26T13:10:53.222Z,60.78
2022-11-26T13:13:33.578Z,60.67
2022-11-26T13:16:10.504Z,60.60
2022-11-26T13:18:43.986Z,61.44
2022-11-26T13:21:39.854Z,61.06
2022-11-26T13:24:44.314Z,61.22
2022-11-26T13:27:39.191Z,61.18
2022-11-26T13:30:21.054Z,61.71
2022-11-26T13:33:27.217Z,61.72
2022-11-26T13:36:37.825Z,60.67
2022-11-26T13:39:35.140Z,60.13
2022-11-26T13:42:27.181Z,60.17
2022-11-26T13:45:40.398Z,59.66
2022-11-26T13:48:14.116Z,59.72
2022-11-26T13:50:48.151Z,59.78
2022-11-26T13:53:26.823Z,60.13
2022-11-26T13:56:01.837Z,60.87
2022-11-26T13:58:34.463Z,60.57
2022-11-26T14:01:36.949Z,61.24
2022-11-26T14:04:08.572Z,61.98
2022-11-26T14:06:37.465Z,61.91
2022-11-26T14:09:07.107Z,62.63
2022-11-26T14:11:57.949Z,63.16
2022-11-26T14:14:37.973Z,63.29
2022-11-26T14:17:18.783Z,63.25
2022-11-26T14:20:11.482Z,63.61
2022-11-26T14:22:40.274Z,64.01
2022-11-26T14:25:13.286Z,63.46
2022-11-26T14:27:55.643Z,63.61
2022-11-26T14:30:32.334Z,63.86
2022-11-26T14:33:15.678Z,63.71
2022-11-26T14:35:55.604Z,63.74
2022-11-26T14:38:27.335Z,63.66
2022-11-26T14:41:01.211Z,63.62
2022-11-26T14:44:08.813Z,63.79
2022-11-26T14:46:37.541Z,63.56
2022-11-26T14:49:20.841Z,63.62
2022-11-26T14:51:53.419Z,63.98
2022-11-26T14:54:29.345Z,63.96
2022-11-26T14:57:06.159Z,63.32
2022-11-26T14:59:35.789Z,63.68
2022-11-26T15:02:28.575Z,63.60
2022-11-26T15:05:05.640Z,63.46
2022-11-26T15:07:33.939Z,64.02
2022-11-26T15:10:05.010Z,63.97
2022-11-26T15:12:34.641Z,63.90
2022-11-26T15:15:06.005Z,63.26
2022-11-26T15:17:35.370Z,63.72
2022-11-26T15:20:08.772Z,63.56
2022-11-26T15:22:40.544Z,64.56
2022-11-26T15:25:18.159Z,64.10
2022-11-26T15:27:59.084Z,63.99
2022-11-26T15:30:31.142Z,64.15
2022-11-26T15:33:02.102Z,63.67
2022-11-26T15:35:39.793Z,64.01
2022-11-26T15:38:13.613Z,64.19
2022-11-26T15:40:48.465Z,64.37
2022-11-26T15:43:25.771Z,64.53
2022-11-26T15:45:58.896Z,64.34
2022-11-26T15:48:50.870Z,64.01
2022-11-26T15:51:30.694Z,64.61
2022-11-26T15:54:03.105Z,64.16
2022-11-26T15:56:35.169Z,64.14
2022-11-26T15:59:14.483Z,64.43
2022-11-26T16:01:47.798Z,64.66
2022-11-26T16:04:43.294Z,64.49
2022-11-26T16:07:17.594Z,65.63
2022-11-26T16:09:47.461Z,65.39
2022-11-26T16:12:32.435Z,65.52
2022-11-26T16:15:21.527Z,64.44
2022-11-26T16:17:52.165Z,64.98
2022-11-26T16:20:23.593Z,64.17
2022-11-26T16:22:54.629Z,64.20
2022-11-26T16:25:26.164Z,64.19
2022-11-26T16:28:07.294Z,64.10
2022-11-26T16:30:36.097Z,64.64
2022-11-26T16:33:07.144Z,64.68
2022-11-26T16:35:51.195Z,65.42
2022-11-26T16:38:21.505Z,66.29
2022-11-26T16:40:50.570Z,65.76
2022-11-26T16:43:19.379Z,65.23
2022-11-26T16:45:48.704Z,66.63
2022-11-26T16:48:26.760Z,66.40
2022-11-26T16:50:56.782Z,65.72
2022-11-26T16:53:25.162Z,65.48
2022-11-26T16:55:54.615Z,65.76
2022-11-26T16:58:28.967Z,65.48
2022-11-26T17:00:58.276Z,65.34
2022-11-26T17:03:32.724Z,65.31
2022-11-26T17:06:05.486Z,65.76
2022-11-26T17:08:35.247Z,65.74
2022-11-26T17:11:03.424Z,66.08
2022-11-26T17:13:31.644Z,65.85
2022-11-26T17:16:03.048Z,65.65
2022-11-26T17:18:33.041Z,65.97
2022-11-26T17:21:01.334Z,66.44
2022-11-26T17:23:29.441Z,66.18
2022-11-26T17:25:57.736Z,66.12
2022-11-26T17:28:26.545Z,66.80
2022-11-26T17:30:55.875Z,66.80
2022-11-26T17:33:24.039Z,67.97
2022-11-26T17:35:53.542Z,67.92
2022-11-26T17:38:22.779Z,67.83
2022-11-26T17:40:50.909Z,67.05
2022-11-26T17:43:19.025Z,66.37
2022-11-26T17:45:47.217Z,66.06
2022-11-26T17:48:15.484Z,65.79
2022-11-26T17:50:43.690Z,65.15
2022-11-26T17:53:13.209Z,65.08
2022-11-26T17:55:41.434Z,65.72
2022-11-26T17:58:12.143Z,65.22
2022-11-26T18:00:40.383Z,66.42
2022-11-26T18:03:08.760Z,66.81
2022-11-26T18:05:41.789Z,67.25
2022-11-26T18:08:10.274Z,66.33
2022-11-26T18:10:41.972Z,66.08
2022-11-26T18:13:10.314Z,66.36
2022-11-26T18:15:38.430Z,66.92
2022-11-26T18:18:07.544Z,66.82
2022-11-26T18:20:35.834Z,66.14
2022-11-26T18:23:04.077Z,66.55
2022-11-26T18:25:34.691Z,66.33
2022-11-26T18:28:04.207Z,66.77
2022-11-26T18:30:32.385Z,66.96
2022-11-26T18:33:01.713Z,66.74
2022-11-26T18:35:29.901Z,66.88
2022-11-26T18:37:59.464Z,67.31
2022-11-26T18:40:27.575Z,67.49
2022-11-26T18:42:55.945Z,67.17
2022-11-26T18:45:25.428Z,67.29
2022-11-26T18:47:53.629Z,67.75
2022-11-26T18:50:21.867Z,67.86
2022-11-26T18:52:49.976Z,68.40
2022-11-26T18:55:18.900Z,68.72
2022-11-26T18:57:46.989Z,68.43
2022-11-26T19:00:16.834Z,68.63
2022-11-26T19:02:46.348Z,69.15
2022-11-26T19:05:15.006Z,68.84
2022-11-26T19:07:43.245Z,69.23
2022-11-26T19:13:05.706Z,69.40
2022-11-26T19:15:34.515Z,69.67
2022-11-26T19:18:03.965Z,69.78
2022-11-26T19:20:32.143Z,70.00
2022-11-26T19:23:00.221Z,70.44
2022-11-26T19:25:30.173Z,70.10
2022-11-26T19:28:03.455Z,69.60
2022-11-26T19:30:33.116Z,69.74
2022-11-26T19:33:02.766Z,69.69
2022-11-26T19:35:30.895Z,70.10
2022-11-26T19:37:59.146Z,69.69
2022-11-26T19:40:27.599Z,69.68
2022-11-26T19:42:55.853Z,69.57
2022-11-26T19:45:24.668Z,69.77
2022-11-26T19:47:52.923Z,69.74
2022-11-26T19:50:22.407Z,69.78
2022-11-26T19:52:50.676Z,69.76
2022-11-26T19:55:18.972Z,70.00
2022-11-26T19:57:47.129Z,69.51
2022-11-26T20:00:26.055Z,69.46
2022-11-26T20:02:54.321Z,69.17
2022-11-26T20:05:23.874Z,68.56
2022-11-26T20:07:52.071Z,68.49
2022-11-26T20:10:20.693Z,68.79
2022-11-26T20:12:48.793Z,68.83
2022-11-26T20:15:18.198Z,68.68
2022-11-26T20:17:46.305Z,68.50
2022-11-26T20:20:14.644Z,68.42
2022-11-26T20:22:44.118Z,68.56
2022-11-26T20:25:15.305Z,68.27
2022-11-26T20:27:49.661Z,68.46
2022-11-26T20:30:42.005Z,68.76
2022-11-26T20:33:11.761Z,68.56
2022-11-26T20:35:41.430Z,68.60
2022-11-26T20:38:11.189Z,68.26
2022-11-26T20:40:40.999Z,68.26
2022-11-26T20:43:09.305Z,67.88
2022-11-26T20:45:38.001Z,68.46
2022-11-26T20:48:06.555Z,68.22
2022-11-26T20:50:34.767Z,68.08
2022-11-26T20:53:02.922Z,67.91
2022-11-26T20:55:32.435Z,67.75
2022-11-26T20:58:00.576Z,67.70
2022-11-26T21:00:28.665Z,67.45
2022-11-26T21:02:56.983Z,67.69
2022-11-26T21:05:25.691Z,67.79
2022-11-26T21:07:53.882Z,67.70
2022-11-26T21:10:25.142Z,68.07
2022-11-26T21:12:54.644Z,67.91
2022-11-26T21:15:23.613Z,68.31
2022-11-26T21:17:52.566Z,67.19
2022-11-26T21:20:20.702Z,67.19
2022-11-26T21:22:48.863Z,67.19
2022-11-26T21:25:17.088Z,67.55
2022-11-26T21:27:45.223Z,67.23
2022-11-26T21:30:16.705Z,66.41
2022-11-26T21:32:44.878Z,66.58
2022-11-26T21:35:12.959Z,66.44
2022-11-26T21:37:41.040Z,66.67
2022-11-26T21:40:11.249Z,66.68
2022-11-26T21:42:39.376Z,66.82
2022-11-26T21:45:09.280Z,66.49
2022-11-26T21:47:38.745Z,66.84
2022-11-26T21:50:10.564Z,67.06
2022-11-26T21:52:39.088Z,67.76
2022-11-26T21:55:33.057Z,66.96
2022-11-26T21:58:03.147Z,66.81
2022-11-26T22:00:31.658Z,66.62
2022-11-26T22:03:11.309Z,66.86
2022-11-26T22:05:41.711Z,67.05
2022-11-26T22:08:10.079Z,67.06
2022-11-26T22:10:38.587Z,67.04
2022-11-26T22:13:12.407Z,67.69
2022-11-26T22:15:46.639Z,67.58
2022-11-26T22:18:16.189Z,67.78
2022-11-26T22:20:52.296Z,67.17
2022-11-26T22:23:26.849Z,67.07
2022-11-26T22:25:55.009Z,67.12
2022-11-26T22:28:28.483Z,67.59
2022-11-26T22:30:58.197Z,66.62
2022-11-26T22:33:27.725Z,66.63
2022-11-26T22:35:55.786Z,66.65
2022-11-26T22:38:23.941Z,66.37
2022-11-26T22:40:52.003Z,65.97
2022-11-26T22:43:20.134Z,67.00
2022-11-26T22:45:48.484Z,67.28
2022-11-26T22:48:16.607Z,67.11
2022-11-26T22:50:52.693Z,67.01
2022-11-26T22:53:21.157Z,67.27
2022-11-26T22:55:54.026Z,65.70
2022-11-26T22:58:23.087Z,66.25
2022-11-26T23:00:54.264Z,66.30
2022-11-26T23:03:22.462Z,66.07
2022-11-26T23:06:08.339Z,66.57
2022-11-26T23:08:37.445Z,67.10
2022-11-26T23:11:18.192Z,66.00
2022-11-26T23:13:48.277Z,66.38
2022-11-26T23:16:22.378Z,65.92
2022-11-26T23:18:51.563Z,66.17
2022-11-26T23:21:23.765Z,66.38
2022-11-26T23:23:52.991Z,65.81
2022-11-26T23:26:27.139Z,66.04
2022-11-26T23:28:57.757Z,66.43
2022-11-26T23:31:28.906Z,65.86
2022-11-26T23:33:57.395Z,66.59
2022-11-26T23:36:28.578Z,66.90
2022-11-26T23:38:59.713Z,66.45
2022-11-26T23:41:28.090Z,66.91
2022-11-26T23:43:56.409Z,66.74
2022-11-26T23:46:27.359Z,66.34
2022-11-26T23:48:56.003Z,66.35
2022-11-26T23:51:30.324Z,66.57
2022-11-26T23:53:58.609Z,66.33
2022-11-26T23:56:29.273Z,66.50
2022-11-26T23:59:02.401Z,65.99
